createdAt,value
2022-10-14T01:47:33.079Z,35.97
2022-10-14T01:50:09.887Z,36.85
2022-10-14T01:52:47.113Z,39.13
2022-10-14T01:55:25.221Z,38.47
2022-10-14T01:57:56.545Z,38.53
2022-10-14T02:00:23.980Z,40.30
2022-10-14T02:02:51.307Z,39.78
2022-10-14T02:05:56.820Z,39.55
2022-10-14T02:08:58.011Z,38.08
2022-10-14T02:11:26.107Z,37.72
2022-10-14T02:14:12.007Z,37.40
2022-10-14T02:17:01.268Z,38.80
2022-10-14T02:19:37.709Z,40.40
2022-10-14T02:22:12.886Z,38.22
2022-10-14T02:24:51.529Z,37.78
2022-10-14T02:27:22.748Z,35.90
2022-10-14T02:29:53.106Z,36.63
2022-10-14T02:32:24.377Z,38.47
2022-10-14T02:34:58.158Z,36.80
2022-10-14T02:37:28.415Z,38.40
2022-10-14T02:40:23.989Z,37.67
2022-10-14T02:42:51.516Z,37.38
2022-10-14T02:45:20.647Z,36.20
2022-10-14T02:47:48.223Z,37.80
2022-10-14T02:50:19.087Z,34.80
2022-10-14T02:52:46.536Z,35.65
2022-10-14T02:55:13.879Z,32.83
2022-10-14T02:57:41.203Z,35.70
2022-10-14T03:00:09.775Z,35.88
2022-10-14T03:05:05.038Z,32.28
2022-10-14T03:07:32.523Z,33.45
2022-10-14T03:09:59.762Z,33.33
2022-10-14T03:12:27.062Z,33.90
2022-10-14T03:14:54.895Z,35.13
2022-10-14T03:17:22.108Z,35.15
2022-10-14T03:19:49.785Z,37.73
2022-10-14T03:22:17.120Z,38.50
2022-10-14T03:24:44.409Z,37.58
2022-10-14T03:27:11.768Z,38.30
2022-10-14T03:29:38.981Z,36.58
2022-10-14T03:32:06.360Z,36.55
2022-10-14T03:34:33.858Z,36.47
2022-10-14T03:37:01.135Z,36.30
2022-10-14T03:39:28.510Z,37.35
2022-10-14T03:41:56.047Z,35.53
2022-10-14T03:44:23.476Z,35.93
2022-10-14T03:46:50.777Z,38.28
2022-10-14T03:49:18.139Z,35.38
2022-10-14T03:51:45.424Z,36.13
2022-10-14T03:54:12.724Z,35.33
2022-10-14T03:56:40.142Z,35.50
2022-10-14T03:59:07.555Z,36.67
2022-10-14T04:01:35.071Z,36.20
2022-10-14T04:04:02.358Z,36.65
2022-10-14T04:06:31.183Z,36.70
2022-10-14T04:08:58.432Z,33.20
2022-10-14T04:11:25.771Z,33.47
2022-10-14T04:13:52.948Z,34.58
2022-10-14T04:16:20.402Z,32.80
2022-10-14T04:18:47.633Z,35.10
2022-10-14T04:21:14.918Z,33.00
2022-10-14T04:23:42.312Z,36.17
2022-10-14T04:26:10.414Z,36.45
2022-10-14T04:28:38.123Z,33.67
2022-10-14T04:31:06.363Z,36.28
2022-10-14T04:33:35.086Z,37.35
2022-10-14T04:36:06.164Z,37.08
2022-10-14T04:38:33.864Z,36.22
2022-10-14T04:41:01.451Z,36.22
2022-10-14T04:43:28.780Z,35.35
2022-10-14T04:45:56.234Z,37.28
2022-10-14T04:48:23.702Z,35.17
2022-10-14T04:50:53.204Z,36.60
2022-10-14T04:53:22.476Z,35.70
2022-10-14T04:55:51.691Z,37.60
2022-10-14T04:58:19.363Z,36.88
2022-10-14T05:00:46.731Z,37.08
2022-10-14T05:03:14.260Z,34.75
2022-10-14T05:05:42.024Z,35.07
2022-10-14T05:08:09.311Z,33.63
2022-10-14T05:10:36.752Z,35.47
2022-10-14T05:13:04.442Z,32.78
2022-10-14T05:15:31.837Z,35.37
2022-10-14T05:17:59.104Z,33.90
2022-10-14T05:20:26.815Z,33.97
2022-10-14T05:22:54.058Z,34.97
2022-10-14T05:25:21.375Z,35.03
2022-10-14T05:27:48.661Z,36.00
2022-10-14T05:30:16.648Z,36.83
2022-10-14T05:32:43.874Z,37.08
2022-10-14T05:35:11.342Z,36.03
2022-10-14T05:37:38.833Z,34.23
2022-10-14T05:40:07.150Z,32.88
2022-10-14T05:45:01.809Z,35.38
2022-10-14T05:47:29.160Z,31.80
2022-10-14T05:49:56.466Z,32.60
2022-10-14T05:52:24.485Z,34.13
2022-10-14T05:54:52.254Z,35.05
2022-10-14T05:57:19.714Z,34.20
2022-10-14T05:59:47.066Z,34.45
2022-10-14T06:02:14.461Z,31.30
2022-10-14T06:04:42.602Z,33.65
2022-10-14T06:07:13.477Z,31.35
2022-10-14T06:09:40.806Z,29.05
2022-10-14T06:12:09.663Z,31.02
2022-10-14T06:14:38.717Z,29.58
2022-10-14T06:17:07.558Z,30.90
2022-10-14T06:19:34.925Z,31.95
2022-10-14T06:22:02.630Z,30.70
2022-10-14T06:24:29.936Z,31.75
2022-10-14T06:26:58.150Z,32.85
2022-10-14T06:29:31.227Z,32.38
2022-10-14T06:31:58.439Z,31.73
2022-10-14T06:34:25.691Z,30.10
2022-10-14T06:36:53.085Z,30.55
2022-10-14T06:39:20.664Z,29.90
2022-10-14T06:41:48.132Z,28.83
2022-10-14T06:44:16.236Z,28.42
2022-10-14T06:46:44.132Z,28.40
2022-10-14T06:49:11.424Z,31.00
2022-10-14T06:51:41.749Z,30.52
2022-10-14T06:54:09.312Z,32.30
2022-10-14T06:56:36.770Z,32.83
2022-10-14T06:59:05.879Z,34.42
2022-10-14T07:01:33.171Z,33.50
2022-10-14T07:04:00.465Z,35.00
2022-10-14T07:06:27.898Z,34.33
2022-10-14T07:08:55.237Z,35.93
2022-10-14T07:11:22.445Z,37.00
2022-10-14T07:13:49.774Z,36.42
2022-10-14T07:16:17.170Z,35.55
2022-10-14T07:18:44.406Z,36.30
2022-10-14T07:21:11.821Z,35.47
2022-10-14T07:23:39.126Z,34.33
2022-10-14T07:26:06.728Z,35.33
2022-10-14T07:28:34.363Z,35.37
2022-10-14T07:31:08.298Z,37.10
2022-10-14T07:33:40.773Z,36.55
2022-10-14T07:36:14.284Z,36.65
2022-10-14T07:38:44.143Z,36.63
2022-10-14T07:41:19.079Z,34.55
2022-10-14T07:44:03.344Z,35.28
2022-10-14T07:46:33.196Z,37.22
2022-10-14T07:49:12.094Z,39.22
2022-10-14T09:16:20.533Z,25.20
2022-10-14T09:19:06.538Z,27.57
2022-10-14T09:21:58.541Z,27.10
2022-10-14T09:24:37.510Z,29.55
2022-10-14T09:27:24.663Z,28.40
2022-10-14T09:30:10.285Z,29.23
2022-10-14T09:32:46.515Z,30.48
2022-10-14T09:35:41.056Z,30.58
2022-10-14T09:38:10.296Z,30.83
2022-10-14T09:40:47.796Z,30.05
2022-10-14T09:43:22.609Z,31.40
2022-10-14T09:46:08.176Z,31.58
2022-10-14T09:48:52.571Z,28.63
2022-10-14T09:51:33.929Z,29.25
2022-10-14T09:54:05.043Z,28.65
2022-10-14T09:56:42.677Z,28.60
2022-10-14T09:59:22.571Z,28.30
2022-10-14T10:01:53.256Z,28.35
2022-10-14T10:04:47.855Z,28.52
2022-10-14T10:07:33.522Z,27.80
2022-10-14T10:10:16.674Z,28.20
2022-10-14T10:12:47.129Z,28.02
2022-10-14T10:15:21.535Z,27.15
2022-10-14T10:17:50.129Z,29.02
2022-10-14T10:23:25.491Z,27.17
2022-10-14T10:25:53.178Z,27.83
2022-10-14T10:28:32.810Z,26.27
2022-10-14T10:31:18.267Z,24.50
2022-10-14T10:34:34.919Z,26.25
2022-10-14T10:37:46.465Z,27.55
2022-10-14T10:40:17.297Z,26.95
2022-10-14T10:43:38.023Z,26.70
2022-10-14T10:46:29.985Z,24.10
2022-10-14T10:50:00.014Z,28.42
2022-10-14T10:52:56.601Z,26.52
2022-10-14T10:56:04.713Z,24.95
2022-10-14T10:59:10.351Z,26.63
2022-10-14T11:01:56.673Z,25.15
2022-10-14T11:04:50.771Z,19.50
2022-10-14T11:08:22.233Z,18.37
2022-10-14T11:11:44.378Z,23.27
2022-10-14T11:14:27.487Z,25.95
2022-10-14T11:17:21.995Z,26.38
2022-10-14T11:20:15.289Z,27.30
2022-10-14T11:23:13.377Z,25.80
2022-10-14T11:25:51.521Z,25.38
2022-10-14T11:29:10.056Z,22.17
2022-10-14T11:32:20.759Z,22.90
2022-10-14T11:35:50.860Z,22.35
2022-10-14T11:39:01.587Z,23.10
2022-10-14T11:41:43.771Z,22.58
2022-10-14T11:44:39.060Z,21.30
2022-10-14T11:47:33.910Z,18.08
2022-10-14T11:50:38.151Z,17.17
2022-10-14T11:53:16.597Z,17.98
2022-10-14T11:55:53.633Z,17.23
2022-10-14T11:58:27.074Z,17.05
2022-10-14T12:01:00.142Z,17.23
2022-10-14T12:03:45.721Z,15.60
2022-10-14T12:06:19.205Z,16.57
2022-10-14T12:09:26.626Z,17.92
2022-10-14T12:12:05.647Z,19.58
2022-10-14T12:14:46.188Z,19.52
2022-10-14T12:17:54.771Z,19.02
2022-10-14T12:20:44.851Z,18.98
2022-10-14T12:23:50.200Z,18.42
2022-10-14T12:26:25.100Z,18.30
2022-10-14T12:28:54.562Z,18.50
2022-10-14T12:32:08.276Z,18.65
2022-10-14T12:34:44.141Z,19.08
2022-10-14T12:37:35.263Z,19.25
2022-10-14T12:40:03.000Z,19.83
2022-10-14T12:42:34.899Z,19.35
2022-10-14T12:45:29.246Z,17.00
2022-10-14T12:48:05.898Z,15.20
2022-10-14T12:50:39.905Z,13.13
2022-10-14T12:53:30.933Z,12.15
2022-10-14T12:56:04.871Z,12.73
2022-10-14T12:58:54.376Z,13.93
2022-10-14T13:01:22.072Z,14.93
2022-10-14T13:06:43.303Z,15.73
2022-10-14T13:09:13.927Z,15.02
2022-10-14T13:11:54.487Z,13.57
2022-10-14T13:14:53.252Z,13.27
2022-10-14T13:17:43.923Z,12.30
2022-10-14T13:20:35.994Z,12.48
2022-10-14T13:23:31.171Z,11.50
2022-10-14T13:26:07.200Z,11.65
2022-10-14T13:29:00.746Z,11.68
2022-10-14T13:31:37.789Z,10.45
2022-10-14T13:34:29.308Z,11.35
2022-10-14T13:37:22.380Z,11.48
2022-10-14T13:39:49.738Z,11.75
2022-10-14T13:42:32.755Z,9.73
2022-10-14T13:45:12.811Z,8.63
2022-10-14T13:47:48.308Z,9.60
2022-10-14T13:50:33.065Z,9.13
2022-10-14T13:53:15.306Z,10.32
2022-10-14T13:55:54.572Z,9.85
2022-10-14T13:58:24.846Z,10.20
2022-10-14T14:01:06.772Z,11.25
2022-10-14T14:03:43.445Z,10.60
2022-10-14T14:06:17.368Z,10.95
2022-10-14T14:09:02.531Z,11.00
2022-10-14T14:11:37.735Z,11.93
2022-10-14T14:14:21.142Z,11.40
2022-10-14T14:16:58.294Z,11.98
2022-10-14T14:19:38.217Z,12.45
2022-10-14T14:22:20.374Z,12.35
2022-10-14T14:24:48.963Z,12.23
2022-10-14T14:27:26.753Z,13.93
2022-10-14T14:29:55.470Z,12.63
2022-10-14T14:32:32.775Z,12.13
2022-10-14T14:35:03.449Z,12.43
2022-10-14T14:40:28.737Z,10.40
2022-10-14T14:43:00.524Z,10.20
2022-10-14T14:45:37.925Z,10.85
2022-10-14T14:48:08.433Z,10.32
2022-10-14T14:50:45.049Z,9.35
2022-10-14T14:53:24.200Z,12.07
2022-10-14T14:56:02.523Z,15.90
2022-10-14T14:58:37.764Z,19.92
2022-10-14T15:01:07.780Z,19.90
2022-10-14T15:04:12.812Z,22.30
2022-10-14T15:07:03.355Z,22.20
2022-10-14T15:09:56.057Z,22.73
2022-10-14T15:12:34.388Z,20.92
2022-10-14T15:15:04.515Z,24.70
2022-10-14T15:17:46.192Z,24.05
2022-10-14T15:20:36.952Z,20.85
2022-10-14T15:24:00.320Z,20.13
2022-10-14T15:26:49.387Z,20.00
2022-10-14T15:32:14.393Z,18.90
2022-10-14T15:34:41.954Z,19.38
2022-10-14T15:37:13.965Z,20.55
2022-10-14T15:39:41.326Z,22.23
2022-10-14T15:42:12.835Z,24.17
2022-10-14T15:44:40.100Z,26.85
2022-10-14T15:47:22.443Z,25.88
2022-10-14T15:49:50.987Z,27.08
2022-10-14T15:54:50.961Z,30.33
2022-10-14T15:57:19.550Z,28.70
2022-10-14T15:59:47.050Z,35.30
2022-10-14T16:02:26.228Z,36.10
2022-10-14T16:05:18.865Z,34.95
2022-10-14T16:07:42.092Z,35.38
2022-10-14T16:10:14.643Z,38.58
2022-10-14T16:12:42.750Z,35.85
2022-10-14T16:15:52.012Z,36.38
2022-10-14T16:18:21.547Z,36.55
2022-10-14T16:20:49.309Z,37.22
2022-10-14T16:23:19.864Z,38.33
2022-10-14T16:25:50.132Z,38.30
2022-10-14T16:28:18.901Z,38.88
2022-10-14T16:30:50.143Z,39.80
2022-10-14T16:33:21.630Z,38.72
2022-10-14T16:35:56.210Z,40.40
2022-10-14T16:38:24.531Z,38.70
2022-10-14T16:40:57.900Z,41.08
2022-10-14T16:43:26.997Z,41.13
2022-10-14T16:45:59.283Z,39.85
2022-10-14T16:48:28.089Z,40.10
2022-10-14T16:50:57.708Z,41.28
2022-10-14T16:53:40.608Z,39.47
2022-10-14T16:56:44.179Z,39.35
2022-10-14T16:59:13.011Z,41.80
2022-10-14T17:01:40.484Z,42.63
2022-10-14T17:04:07.886Z,41.97
2022-10-14T17:06:35.256Z,39.92
2022-10-14T17:09:02.591Z,40.38
2022-10-14T17:11:31.096Z,39.72
2022-10-14T17:14:00.974Z,38.35
2022-10-14T17:16:29.391Z,39.97
2022-10-14T17:18:59.035Z,39.90
2022-10-14T17:21:29.915Z,37.60
2022-10-14T17:24:03.926Z,38.42
2022-10-14T17:26:33.496Z,36.07
2022-10-14T17:29:01.581Z,38.00
2022-10-14T17:31:30.738Z,38.25
2022-10-14T17:34:00.027Z,37.88
2022-10-14T17:36:30.811Z,37.20
2022-10-14T17:38:59.825Z,38.72
2022-10-14T17:41:29.777Z,39.17
2022-10-14T17:44:01.279Z,38.80
2022-10-14T17:46:29.875Z,40.47
2022-10-14T17:49:01.043Z,40.17
2022-10-14T17:51:28.943Z,40.93
2022-10-14T17:54:02.741Z,43.30
2022-10-14T17:56:33.559Z,45.17
2022-10-14T17:59:07.225Z,44.63
2022-10-14T18:02:02.214Z,43.58
2022-10-14T18:04:23.067Z,45.83
2022-10-14T18:06:50.368Z,44.65
2022-10-14T18:09:17.573Z,45.15
2022-10-14T18:12:07.794Z,45.27
2022-10-14T18:14:34.268Z,46.08
2022-10-14T18:17:02.058Z,44.95
2022-10-14T18:19:29.480Z,47.08
2022-10-14T18:21:57.157Z,44.78
2022-10-14T18:24:25.541Z,45.10
2022-10-14T18:26:53.534Z,44.65
2022-10-14T18:29:21.074Z,48.28
2022-10-14T18:34:18.253Z,54.38
2022-10-14T18:36:47.904Z,55.47
2022-10-14T18:39:15.571Z,52.65
2022-10-14T18:41:44.004Z,53.42
2022-10-14T18:46:39.702Z,45.10
2022-10-14T18:51:40.265Z,41.65
2022-10-14T18:54:19.663Z,39.45
2022-10-14T18:56:47.770Z,41.65
2022-10-14T18:59:20.673Z,42.55
2022-10-14T19:01:52.070Z,42.00
2022-10-14T19:04:29.998Z,42.83
2022-10-14T19:06:57.228Z,44.22
2022-10-14T19:09:29.717Z,43.60
2022-10-14T19:11:59.075Z,40.58
2022-10-14T19:14:28.665Z,41.95
2022-10-14T19:16:56.095Z,43.90
2022-10-14T19:19:23.329Z,45.75
2022-10-14T19:21:54.508Z,43.67
2022-10-14T19:24:22.266Z,45.30
2022-10-14T19:26:50.262Z,44.17
2022-10-14T19:29:17.931Z,51.75
2022-10-14T19:31:45.647Z,45.78
2022-10-14T19:34:16.394Z,47.05
2022-10-14T19:36:45.652Z,46.92
2022-10-14T19:39:16.571Z,46.42
2022-10-14T19:41:46.444Z,50.33
2022-10-14T19:44:16.191Z,48.75
2022-10-14T19:46:45.569Z,47.90
2022-10-14T19:49:15.434Z,47.53
2022-10-14T19:51:42.881Z,46.78
2022-10-14T19:54:12.473Z,53.40
2022-10-14T19:56:40.389Z,50.63
2022-10-14T19:59:08.759Z,50.35
2022-10-14T20:01:38.891Z,54.47
2022-10-14T20:04:09.089Z,52.13
2022-10-14T20:06:38.339Z,52.42
2022-10-14T20:09:07.922Z,52.28
2022-10-14T20:11:35.995Z,55.92
2022-10-14T20:14:03.423Z,50.40
2022-10-14T20:16:30.882Z,53.05
2022-10-14T20:18:58.559Z,50.75
2022-10-14T20:21:26.449Z,44.83
2022-10-14T20:23:53.697Z,49.88
2022-10-14T21:36:33.708Z,41.25
2022-10-14T21:39:01.969Z,43.45
2022-10-14T21:41:29.360Z,46.92
2022-10-14T21:43:59.158Z,47.03
2022-10-14T21:46:27.114Z,50.83
2022-10-14T21:48:58.683Z,50.20
2022-10-14T21:51:29.719Z,52.65
2022-10-14T21:53:58.000Z,62.45
2022-10-14T21:56:26.756Z,63.83
2022-10-14T21:58:54.469Z,63.80
2022-10-14T22:01:29.273Z,62.13
2022-10-14T22:04:05.753Z,64.13
2022-10-14T22:06:36.349Z,62.35
2022-10-14T22:09:07.954Z,60.78
2022-10-14T22:11:40.066Z,64.20
2022-10-14T22:14:12.869Z,65.13
2022-10-14T22:16:40.643Z,64.32
2022-10-14T22:19:08.241Z,66.22
2022-10-14T22:21:38.271Z,66.80
2022-10-14T22:26:35.561Z,67.75
2022-10-14T22:29:13.871Z,69.53
2022-10-14T22:31:41.841Z,67.20
2022-10-14T22:34:12.333Z,66.70
2022-10-14T22:36:40.666Z,67.18
2022-10-14T22:39:14.118Z,67.13
2022-10-14T22:41:42.540Z,67.57
2022-10-14T22:44:10.857Z,68.07
2022-10-14T22:46:40.339Z,67.32
2022-10-14T22:49:07.712Z,67.28
2022-10-14T22:51:40.671Z,65.22
2022-10-14T22:54:09.507Z,64.73
2022-10-14T22:56:37.051Z,68.78
2022-10-14T22:59:08.820Z,66.97
2022-10-14T23:01:37.367Z,67.32
2022-10-14T23:04:05.504Z,65.40
2022-10-14T23:06:33.293Z,65.90
2022-10-14T23:09:01.557Z,67.30
2022-10-14T23:11:31.274Z,65.25
2022-10-14T23:14:01.505Z,67.68
2022-10-14T23:16:32.322Z,68.20
2022-10-14T23:18:59.756Z,70.63
2022-10-14T23:21:31.423Z,72.18
2022-10-14T23:24:01.754Z,73.35
2022-10-14T23:26:33.146Z,75.03
2022-10-14T23:29:04.443Z,75.23
2022-10-14T23:31:34.916Z,76.47
2022-10-14T23:34:10.116Z,76.68
2022-10-14T23:36:38.233Z,74.70
2022-10-14T23:39:06.002Z,76.30
2022-10-14T23:41:33.809Z,75.55
2022-10-14T23:44:39.384Z,76.03
2022-10-14T23:47:06.898Z,76.45
2022-10-14T23:49:34.179Z,78.45
2022-10-14T23:52:01.417Z,75.28
2022-10-14T23:54:28.815Z,77.68
2022-10-14T23:56:56.234Z,77.35
2022-10-14T23:59:23.795Z,76.35
